Orbital elements of COSMOS 2251 DEB
| Launched | 15 June 1993 |
| Flight ended | – |
| Launch site | Plesetsk Missile and Space Complex, Russia |
| Owner | Commonwealth of Independent States (former USSR) |
| NORAD ID | 34790 |
| Date fetched |
Epoch osculation |
Inc. [°] |
Ecc. | RA asc node [hr] |
Arg Peri. [°] |
Mean anom [°] |
Mean motion [rev/day] |
Abs. mag |
| Date fetched |
Epoch osculation |
Inc. [°] |
Ecc. | RA asc node [hr] |
Arg Peri. [°] |
Mean anom [°] |
Mean motion [rev/day] |
Abs. mag |
| 2026 May 05 17:57 | 2026 May 04 16:23:11 | 74.0543 | 0.00990 | 23.0816 | 14.3756 | 43.0499 | 14.25153 | – |
| 2026 May 04 17:57 | 2026 Apr 29 16:46:17 | 74.0548 | 0.00989 | 23.6804 | 24.4717 | 43.0499 | 14.25153 | – |
| 2026 May 03 17:57 | 2026 Apr 29 16:46:17 | 74.0548 | 0.00989 | 23.6804 | 24.4717 | 43.0499 | 14.25153 | – |
| 2026 May 02 17:57 | 2026 Apr 29 16:46:17 | 74.0548 | 0.00989 | 23.6804 | 24.4717 | 43.0499 | 14.25153 | – |
| 2026 May 01 17:56 | 2026 Apr 29 16:46:17 | 74.0548 | 0.00989 | 23.6804 | 24.4717 | 43.0499 | 14.25153 | – |
| 2026 Apr 30 17:56 | 2026 Apr 29 16:46:17 | 74.0548 | 0.00989 | 23.6804 | 24.4717 | 43.0499 | 14.25153 | – |
| 2026 Apr 29 17:57 | 2026 Apr 24 04:08:49 | 74.0552 | 0.00987 | 0.3442 | 35.7148 | 43.0499 | 14.25153 | – |
| 2026 Apr 28 17:56 | 2026 Apr 24 04:08:49 | 74.0552 | 0.00987 | 0.3442 | 35.7148 | 43.0499 | 14.25153 | – |
| 2026 Apr 27 17:58 | 2026 Apr 24 04:08:49 | 74.0552 | 0.00987 | 0.3442 | 35.7148 | 43.0499 | 14.25153 | – |
| 2026 Apr 26 17:58 | 2026 Apr 24 04:08:49 | 74.0552 | 0.00987 | 0.3442 | 35.7148 | 43.0499 | 14.25153 | – |
| 2026 Apr 25 17:58 | 2026 Apr 24 04:08:49 | 74.0552 | 0.00987 | 0.3442 | 35.7148 | 43.0499 | 14.25153 | – |
| 2026 Apr 24 17:59 | 2026 Apr 24 04:08:49 | 74.0552 | 0.00987 | 0.3442 | 35.7148 | 43.0499 | 14.25153 | – |
| 2026 Apr 23 17:57 | 2026 Apr 19 04:30:08 | 74.0554 | 0.00985 | 0.9430 | 45.8923 | 43.0499 | 14.25153 | – |
| 2026 Apr 22 17:57 | 2026 Apr 19 04:30:08 | 74.0554 | 0.00985 | 0.9430 | 45.8923 | 43.0499 | 14.25153 | – |
| 2026 Apr 21 17:57 | 2026 Apr 19 04:30:08 | 74.0554 | 0.00985 | 0.9430 | 45.8923 | 43.0499 | 14.25153 | – |
| 2026 Apr 20 17:57 | 2026 Apr 19 04:30:08 | 74.0554 | 0.00985 | 0.9430 | 45.8923 | 43.0499 | 14.25153 | – |
| 2026 Apr 19 17:58 | 2026 Apr 19 04:30:08 | 74.0554 | 0.00985 | 0.9430 | 45.8923 | 43.0499 | 14.25153 | – |
| 2026 Apr 18 17:56 | 2026 Apr 13 05:17:17 | 74.0554 | 0.00981 | 1.6597 | 58.0404 | 43.0499 | 14.25153 | – |
| 2026 Apr 16 17:57 | 2026 Apr 13 05:17:17 | 74.0554 | 0.00981 | 1.6597 | 58.0404 | 43.0499 | 14.25153 | – |
| 2026 Apr 14 17:57 | 2026 Apr 13 05:17:17 | 74.0554 | 0.00981 | 1.6597 | 58.0404 | 43.0499 | 14.25153 | – |
| 2026 Apr 13 17:57 | 2026 Apr 13 05:17:17 | 74.0554 | 0.00981 | 1.6597 | 58.0404 | 43.0499 | 14.25153 | – |
| 2026 Apr 12 17:57 | 2026 Apr 07 18:59:47 | 74.0557 | 0.00978 | 2.3118 | 69.1632 | 43.0499 | 14.25153 | – |
| 2026 Apr 11 17:57 | 2026 Apr 07 18:59:47 | 74.0557 | 0.00978 | 2.3118 | 69.1632 | 43.0499 | 14.25153 | – |
| 2026 Apr 10 17:58 | 2026 Apr 07 18:59:47 | 74.0557 | 0.00978 | 2.3118 | 69.1632 | 43.0499 | 14.25153 | – |
| 2026 Apr 09 18:01 | 2026 Apr 07 18:59:47 | 74.0557 | 0.00978 | 2.3118 | 69.1632 | 43.0499 | 14.25153 | – |
| 2026 Apr 08 17:57 | 2026 Apr 07 18:59:47 | 74.0557 | 0.00978 | 2.3118 | 69.1632 | 43.0499 | 14.25153 | – |